This is the latest recevied weather packets stored in our database for station/object SLG. If no packets are shown the sender has not sent any weather packets the latest 10 day(s).
| Time | Temp. | Humidity | Pressure | Rain* | Wind** | Luminosity | Snow |
|---|---|---|---|---|---|---|---|
| 1777141929 | 17.78° C | 41% | 1014.7 hPa | 0 mm | - | - | - |
| 1777140130 | 18.89° C | 38% | 1014.2 hPa | 0 mm | - | - | - |
| 1777138331 | 20.56° C | 35% | 1013.8 hPa | 0 mm | - | - | - |
| 1777136530 | 22.22° C | 29% | 1013.6 hPa | 0 mm | - | - | - |
| 1777134731 | 23.89° C | 26% | 1013.4 hPa | 0 mm | - | - | - |
| 1777132929 | 25° C | 23% | 1013.4 hPa | 0 mm | - | - | - |
| 1777131130 | 25.56° C | 21% | 1013.4 hPa | 0 mm | - | - | - |
| 1777129330 | 25.56° C | 22% | 1013.3 hPa | 0 mm | - | - | - |
| 1777127530 | 25.56° C | 22% | 1013.3 hPa | 0 mm | - | - | - |
| 1777125730 | 26.11° C | 23% | 1013.4 hPa | 0 mm | - | - | - |
| 1777123930 | 26.67° C | 22% | 1013.8 hPa | 0 mm | - | - | - |
| 1777122130 | 25.56° C | 22% | 1013.9 hPa | 0 mm | - | - | - |
| 1777120330 | 25° C | 20% | 1014.2 hPa | 0 mm | - | - | - |
| 1777118531 | 25° C | 21% | 1014.4 hPa | 0 mm | - | - | - |
| 1777116730 | 24.44° C | 23% | 1014.8 hPa | 0 mm | - | - | - |
| 1777114931 | 23.89° C | 26% | 1015 hPa | 0 mm | - | - | - |
| 1777113131 | 23.33° C | 26% | 1015.4 hPa | 0 mm | - | - | - |
| 1777111330 | 21.67° C | 27% | 1015.6 hPa | 0 mm | - | - | - |
| 1777109530 | 20° C | 32% | 1015.7 hPa | 0 mm | - | - | - |
| 1777107730 | 19.44° C | 34% | 1015.7 hPa | 0 mm | - | - | - |
| 1777105931 | 17.22° C | 38% | 1015.8 hPa | 0 mm | - | - | - |
* Rain since midnight (hover to see other rain measurements)
** Current wind speed in m/s (hover to see current wind gust speed)